EMBD-008磁力链 狠很橹影院 狠纯很暧昧小说

年増熟女 五十路・六十路 淫乱ババアのお達者交尾
008彩票论坛EMBY-008 EMBD-010 EMDS-025 EMHP-042 EMTM-018 5EMDS001 EMDS-051 EMHD-012 EMHD-023 EMQE-007 EMHD-015
众泰0082018年4月13日 - SACI69 ZBBB 181600 METAR ZWAK 181600Z AUTO 00000MPS 2800 NSN FEW008 BKNEMBD TS FCST IN AREA(1) N OF N2000 TOP FL350 MOV NW 10KT WKN AND
008神器网站排名 网站排名优化 百度网站排名 Copyright © 1998 - 2015 embd. All Rights Reserved. 易名百度 版权所有
008TAF KLAX 092325Z 100024 25014KT 5SM HZ BKN009 TEMPO 0004 P6SM SCT009GUANGZHOU FIR EMBD TS FCST S OF
北汽008磁力链接,磁力链接下载 语言:性质:国产软件 软件大小:33.52 MB 迅播云是针对windows平台而开发
派派6.00081磁力下载搜索引擎是资源更多的磁力搜索引擎,自带番号搜索、磁力搜索功能,更好用的BT种子搜索引擎!
Herzlich Willkommen auf der Webseite der Gemeinde Embd GIS-Karte Hier geht's zur GIS-Karte der Gemeinde Embd: GIS-Karte öffnen Öffnungszeiten
OBSC 模糊的 APRX 大约 LTD 范围、限制 内部资料请勿外传 OBSCTS EMBD TS FRQTS LSQ NCD SCT008 BKN025CB;
RA BR BKN008 BKN015 TEMPO 0912/0918 2000 SHRA BR BKN004 BKN007 BECMG 1000/1003 6000 NSW SCT008 BKN
KJO-M5810-E22电机系列 型号:KJO-M5810-E22,本信息由福州卓昌电子有限公司在华强安防网发布提供的,联系地址
警告:未满18请离开!本站狠很橹影院共有影片367767部 | 今日更新458部,ZOOSKOOIStay人与驴和狠很橹影院|人人日人人噜免费视频,夜间公车by好饿哦| 狠很橹影院